sensor_id;sensor_type;location;lat;lon;timestamp;temperature;humidity
9762;DHT22;4920;49.594;11.022;2023-12-22T00:00:38;5.30;99.90
9762;DHT22;4920;49.594;11.022;2023-12-22T00:03:07;5.30;99.90
9762;DHT22;4920;49.594;11.022;2023-12-22T00:05:36;5.30;99.90
9762;DHT22;4920;49.594;11.022;2023-12-22T00:08:05;5.30;99.90
9762;DHT22;4920;49.594;11.022;2023-12-22T00:10:36;5.30;99.90
9762;DHT22;4920;49.594;11.022;2023-12-22T00:13:05;5.30;99.90
9762;DHT22;4920;49.594;11.022;2023-12-22T00:15:34;5.20;99.90
9762;DHT22;4920;49.594;11.022;2023-12-22T00:18:03;5.20;99.90
9762;DHT22;4920;49.594;11.022;2023-12-22T00:20:32;5.20;99.90
9762;DHT22;4920;49.594;11.022;2023-12-22T00:23:01;5.10;99.90
9762;DHT22;4920;49.594;11.022;2023-12-22T00:25:30;5.10;99.90
9762;DHT22;4920;49.594;11.022;2023-12-22T00:28:00;5.10;99.90
9762;DHT22;4920;49.594;11.022;2023-12-22T00:30:29;5.00;99.90
9762;DHT22;4920;49.594;11.022;2023-12-22T00:32:58;5.00;99.90
9762;DHT22;4920;49.594;11.022;2023-12-22T00:35:27;4.90;99.90
9762;DHT22;4920;49.594;11.022;2023-12-22T00:37:56;4.90;99.90
9762;DHT22;4920;49.594;11.022;2023-12-22T00:40:25;4.80;99.90
9762;DHT22;4920;49.594;11.022;2023-12-22T00:42:54;4.70;99.90
9762;DHT22;4920;49.594;11.022;2023-12-22T00:45:24;4.70;99.90
9762;DHT22;4920;49.594;11.022;2023-12-22T00:47:53;4.60;99.90
9762;DHT22;4920;49.594;11.022;2023-12-22T00:50:22;4.60;99.90
9762;DHT22;4920;49.594;11.022;2023-12-22T00:52:51;4.60;99.90
9762;DHT22;4920;49.594;11.022;2023-12-22T00:55:20;4.60;99.90
9762;DHT22;4920;49.594;11.022;2023-12-22T00:57:49;4.60;99.90
9762;DHT22;4920;49.594;11.022;2023-12-22T01:00:19;4.60;99.90
9762;DHT22;4920;49.594;11.022;2023-12-22T01:02:50;4.70;99.90
9762;DHT22;4920;49.594;11.022;2023-12-22T01:05:18;4.70;99.90
9762;DHT22;4920;49.594;11.022;2023-12-22T01:07:47;4.70;99.90
9762;DHT22;4920;49.594;11.022;2023-12-22T01:10:17;4.60;99.90
9762;DHT22;4920;49.594;11.022;2023-12-22T01:12:46;4.70;99.90
9762;DHT22;4920;49.594;11.022;2023-12-22T01:15:15;4.80;99.90
9762;DHT22;4920;49.594;11.022;2023-12-22T01:17:44;4.70;99.90
9762;DHT22;4920;49.594;11.022;2023-12-22T01:20:15;4.70;99.90
9762;DHT22;4920;49.594;11.022;2023-12-22T01:22:45;4.70;99.90
9762;DHT22;4920;49.594;11.022;2023-12-22T01:25:14;4.70;99.90
9762;DHT22;4920;49.594;11.022;2023-12-22T01:27:43;4.80;99.90
9762;DHT22;4920;49.594;11.022;2023-12-22T01:30:12;4.80;99.90
9762;DHT22;4920;49.594;11.022;2023-12-22T01:32:41;4.80;99.90
9762;DHT22;4920;49.594;11.022;2023-12-22T01:35:10;4.80;99.90
9762;DHT22;4920;49.594;11.022;2023-12-22T01:37:40;4.90;99.90
9762;DHT22;4920;49.594;11.022;2023-12-22T01:40:10;4.80;99.90
9762;DHT22;4920;49.594;11.022;2023-12-22T01:42:39;4.90;99.90
9762;DHT22;4920;49.594;11.022;2023-12-22T01:45:08;4.80;99.90
9762;DHT22;4920;49.594;11.022;2023-12-22T01:47:39;4.90;99.90
9762;DHT22;4920;49.594;11.022;2023-12-22T01:50:08;4.90;99.90
9762;DHT22;4920;49.594;11.022;2023-12-22T01:52:41;4.90;99.90
9762;DHT22;4920;49.594;11.022;2023-12-22T01:55:11;4.90;99.90
9762;DHT22;4920;49.594;11.022;2023-12-22T01:57:41;4.90;99.90
9762;DHT22;4920;49.594;11.022;2023-12-22T02:00:11;4.90;99.90
9762;DHT22;4920;49.594;11.022;2023-12-22T02:02:41;4.90;99.90
9762;DHT22;4920;49.594;11.022;2023-12-22T02:05:11;4.90;99.90
9762;DHT22;4920;49.594;11.022;2023-12-22T02:07:42;4.90;99.90
9762;DHT22;4920;49.594;11.022;2023-12-22T02:10:11;4.90;99.90
9762;DHT22;4920;49.594;11.022;2023-12-22T02:12:40;4.90;99.90
9762;DHT22;4920;49.594;11.022;2023-12-22T02:15:10;5.00;99.90
9762;DHT22;4920;49.594;11.022;2023-12-22T02:17:44;5.00;99.90
9762;DHT22;4920;49.594;11.022;2023-12-22T02:20:17;5.00;99.90
9762;DHT22;4920;49.594;11.022;2023-12-22T02:22:51;5.00;99.90
9762;DHT22;4920;49.594;11.022;2023-12-22T02:25:20;5.00;99.90
9762;DHT22;4920;49.594;11.022;2023-12-22T02:27:50;4.90;99.90
9762;DHT22;4920;49.594;11.022;2023-12-22T02:30:25;5.00;99.90
9762;DHT22;4920;49.594;11.022;2023-12-22T02:32:57;5.00;99.90
9762;DHT22;4920;49.594;11.022;2023-12-22T02:35:29;5.00;99.90
9762;DHT22;4920;49.594;11.022;2023-12-22T02:38:02;4.90;99.90
9762;DHT22;4920;49.594;11.022;2023-12-22T02:40:32;5.00;99.90
9762;DHT22;4920;49.594;11.022;2023-12-22T02:43:03;5.00;99.90
9762;DHT22;4920;49.594;11.022;2023-12-22T02:45:33;5.00;99.90
9762;DHT22;4920;49.594;11.022;2023-12-22T02:48:03;5.00;99.90
9762;DHT22;4920;49.594;11.022;2023-12-22T02:50:32;5.00;99.90
9762;DHT22;4920;49.594;11.022;2023-12-22T02:53:03;5.00;99.90
9762;DHT22;4920;49.594;11.022;2023-12-22T02:55:32;5.00;99.90
9762;DHT22;4920;49.594;11.022;2023-12-22T02:58:00;4.90;99.90
9762;DHT22;4920;49.594;11.022;2023-12-22T03:00:30;4.90;99.90
9762;DHT22;4920;49.594;11.022;2023-12-22T03:02:58;4.80;99.90
9762;DHT22;4920;49.594;11.022;2023-12-22T03:05:27;4.80;99.90
9762;DHT22;4920;49.594;11.022;2023-12-22T03:07:56;4.80;99.90
9762;DHT22;4920;49.594;11.022;2023-12-22T03:10:29;4.80;99.90
9762;DHT22;4920;49.594;11.022;2023-12-22T03:12:58;4.80;99.90
9762;DHT22;4920;49.594;11.022;2023-12-22T03:15:26;4.80;99.90
9762;DHT22;4920;49.594;11.022;2023-12-22T03:17:56;4.90;99.90
9762;DHT22;4920;49.594;11.022;2023-12-22T03:20:24;4.90;99.90
9762;DHT22;4920;49.594;11.022;2023-12-22T03:22:54;4.90;99.90
9762;DHT22;4920;49.594;11.022;2023-12-22T03:25:23;4.90;99.90
9762;DHT22;4920;49.594;11.022;2023-12-22T03:27:54;4.90;99.90
9762;DHT22;4920;49.594;11.022;2023-12-22T03:30:23;4.90;99.90
9762;DHT22;4920;49.594;11.022;2023-12-22T03:32:52;4.80;99.90
9762;DHT22;4920;49.594;11.022;2023-12-22T03:35:21;4.80;99.90
9762;DHT22;4920;49.594;11.022;2023-12-22T03:37:50;4.80;99.90
9762;DHT22;4920;49.594;11.022;2023-12-22T03:40:19;4.70;99.90
9762;DHT22;4920;49.594;11.022;2023-12-22T03:42:48;4.70;99.90
9762;DHT22;4920;49.594;11.022;2023-12-22T03:45:18;4.70;99.90
9762;DHT22;4920;49.594;11.022;2023-12-22T03:47:47;4.70;99.90
9762;DHT22;4920;49.594;11.022;2023-12-22T03:50:17;4.70;99.90
9762;DHT22;4920;49.594;11.022;2023-12-22T03:52:46;4.70;99.90
9762;DHT22;4920;49.594;11.022;2023-12-22T03:55:15;4.70;99.90
9762;DHT22;4920;49.594;11.022;2023-12-22T03:57:45;4.70;99.90
9762;DHT22;4920;49.594;11.022;2023-12-22T04:00:15;4.80;99.90
9762;DHT22;4920;49.594;11.022;2023-12-22T04:02:46;4.80;99.90
9762;DHT22;4920;49.594;11.022;2023-12-22T04:05:15;4.70;99.90
9762;DHT22;4920;49.594;11.022;2023-12-22T04:07:44;4.70;99.90
9762;DHT22;4920;49.594;11.022;2023-12-22T04:10:16;4.80;99.90
9762;DHT22;4920;49.594;11.022;2023-12-22T04:12:45;4.80;99.90
9762;DHT22;4920;49.594;11.022;2023-12-22T04:15:14;4.80;99.90
9762;DHT22;4920;49.594;11.022;2023-12-22T04:17:43;4.80;99.90
9762;DHT22;4920;49.594;11.022;2023-12-22T04:20:14;4.80;99.90
9762;DHT22;4920;49.594;11.022;2023-12-22T04:22:43;4.80;99.90
9762;DHT22;4920;49.594;11.022;2023-12-22T04:25:12;4.70;99.90
9762;DHT22;4920;49.594;11.022;2023-12-22T04:27:41;4.80;99.90
9762;DHT22;4920;49.594;11.022;2023-12-22T04:30:11;4.70;99.90
9762;DHT22;4920;49.594;11.022;2023-12-22T04:32:40;4.70;99.90
9762;DHT22;4920;49.594;11.022;2023-12-22T04:35:09;4.70;99.90
9762;DHT22;4920;49.594;11.022;2023-12-22T04:37:39;4.70;99.90
9762;DHT22;4920;49.594;11.022;2023-12-22T04:40:09;4.70;99.90
9762;DHT22;4920;49.594;11.022;2023-12-22T04:42:39;4.70;99.90
9762;DHT22;4920;49.594;11.022;2023-12-22T04:45:08;4.70;99.90
9762;DHT22;4920;49.594;11.022;2023-12-22T04:47:37;4.70;99.90
9762;DHT22;4920;49.594;11.022;2023-12-22T04:50:06;4.60;99.90
9762;DHT22;4920;49.594;11.022;2023-12-22T04:52:35;4.60;99.90
9762;DHT22;4920;49.594;11.022;2023-12-22T04:55:06;4.50;99.90
9762;DHT22;4920;49.594;11.022;2023-12-22T04:57:35;4.50;99.90
9762;DHT22;4920;49.594;11.022;2023-12-22T05:00:05;4.50;99.90
9762;DHT22;4920;49.594;11.022;2023-12-22T05:02:34;4.50;99.90
9762;DHT22;4920;49.594;11.022;2023-12-22T05:05:04;4.40;99.90
9762;DHT22;4920;49.594;11.022;2023-12-22T05:07:33;4.40;99.90
9762;DHT22;4920;49.594;11.022;2023-12-22T05:10:02;4.40;99.90
9762;DHT22;4920;49.594;11.022;2023-12-22T05:12:33;4.50;99.90
9762;DHT22;4920;49.594;11.022;2023-12-22T05:15:02;4.50;99.90
9762;DHT22;4920;49.594;11.022;2023-12-22T05:17:31;4.50;99.90
9762;DHT22;4920;49.594;11.022;2023-12-22T05:20:01;4.50;99.90
9762;DHT22;4920;49.594;11.022;2023-12-22T05:22:30;4.50;99.90
9762;DHT22;4920;49.594;11.022;2023-12-22T05:25:03;4.50;99.90
9762;DHT22;4920;49.594;11.022;2023-12-22T05:27:34;4.50;99.90
9762;DHT22;4920;49.594;11.022;2023-12-22T05:30:04;4.50;99.90
9762;DHT22;4920;49.594;11.022;2023-12-22T05:32:33;4.50;99.90
9762;DHT22;4920;49.594;11.022;2023-12-22T05:35:02;4.50;99.90
9762;DHT22;4920;49.594;11.022;2023-12-22T05:37:31;4.50;99.90
9762;DHT22;4920;49.594;11.022;2023-12-22T05:40:00;4.60;99.90
9762;DHT22;4920;49.594;11.022;2023-12-22T05:42:29;4.50;99.90
9762;DHT22;4920;49.594;11.022;2023-12-22T05:44:59;4.60;99.90
9762;DHT22;4920;49.594;11.022;2023-12-22T05:47:28;4.60;99.90
9762;DHT22;4920;49.594;11.022;2023-12-22T05:49:58;4.60;99.90
9762;DHT22;4920;49.594;11.022;2023-12-22T05:52:27;4.60;99.90
9762;DHT22;4920;49.594;11.022;2023-12-22T05:54:56;4.60;99.90
9762;DHT22;4920;49.594;11.022;2023-12-22T05:57:26;4.60;99.90
9762;DHT22;4920;49.594;11.022;2023-12-22T05:59:55;4.50;99.90
9762;DHT22;4920;49.594;11.022;2023-12-22T06:02:25;4.50;99.90
9762;DHT22;4920;49.594;11.022;2023-12-22T06:04:54;4.50;99.90
9762;DHT22;4920;49.594;11.022;2023-12-22T06:07:23;4.40;99.90
9762;DHT22;4920;49.594;11.022;2023-12-22T06:09:55;4.30;99.90
9762;DHT22;4920;49.594;11.022;2023-12-22T06:12:24;4.30;99.90
9762;DHT22;4920;49.594;11.022;2023-12-22T06:14:53;4.30;99.90
9762;DHT22;4920;49.594;11.022;2023-12-22T06:17:22;4.20;99.90
9762;DHT22;4920;49.594;11.022;2023-12-22T06:19:53;4.20;99.90
9762;DHT22;4920;49.594;11.022;2023-12-22T06:22:22;4.10;99.90
9762;DHT22;4920;49.594;11.022;2023-12-22T06:24:51;4.10;99.90
9762;DHT22;4920;49.594;11.022;2023-12-22T06:27:20;4.00;99.90
9762;DHT22;4920;49.594;11.022;2023-12-22T06:29:49;4.10;99.90
9762;DHT22;4920;49.594;11.022;2023-12-22T06:32:18;4.10;99.90
9762;DHT22;4920;49.594;11.022;2023-12-22T06:34:47;4.20;99.90
9762;DHT22;4920;49.594;11.022;2023-12-22T06:37:18;4.20;99.90
9762;DHT22;4920;49.594;11.022;2023-12-22T06:39:47;4.20;99.90
9762;DHT22;4920;49.594;11.022;2023-12-22T06:42:16;4.10;99.90
9762;DHT22;4920;49.594;11.022;2023-12-22T06:44:44;4.00;99.90
9762;DHT22;4920;49.594;11.022;2023-12-22T06:47:14;3.90;99.90
9762;DHT22;4920;49.594;11.022;2023-12-22T06:49:43;3.90;99.90
9762;DHT22;4920;49.594;11.022;2023-12-22T06:52:12;3.80;99.90
9762;DHT22;4920;49.594;11.022;2023-12-22T06:54:43;3.70;99.90
9762;DHT22;4920;49.594;11.022;2023-12-22T06:57:12;3.70;99.90
9762;DHT22;4920;49.594;11.022;2023-12-22T06:59:43;3.70;99.90
9762;DHT22;4920;49.594;11.022;2023-12-22T07:02:13;3.70;99.90
9762;DHT22;4920;49.594;11.022;2023-12-22T07:05:34;3.70;99.90
9762;DHT22;4920;49.594;11.022;2023-12-22T07:08:06;3.60;99.90
9762;DHT22;4920;49.594;11.022;2023-12-22T07:10:37;3.60;99.90
9762;DHT22;4920;49.594;11.022;2023-12-22T07:13:06;3.60;99.90
9762;DHT22;4920;49.594;11.022;2023-12-22T07:15:35;3.70;99.90
9762;DHT22;4920;49.594;11.022;2023-12-22T07:18:04;3.70;99.90
9762;DHT22;4920;49.594;11.022;2023-12-22T07:20:34;3.70;99.90
9762;DHT22;4920;49.594;11.022;2023-12-22T07:23:03;3.70;99.90
9762;DHT22;4920;49.594;11.022;2023-12-22T07:25:37;3.80;99.90
9762;DHT22;4920;49.594;11.022;2023-12-22T07:28:06;3.90;99.90
9762;DHT22;4920;49.594;11.022;2023-12-22T07:30:35;4.00;99.90
9762;DHT22;4920;49.594;11.022;2023-12-22T07:33:04;4.00;99.90
9762;DHT22;4920;49.594;11.022;2023-12-22T07:35:34;4.10;99.90
9762;DHT22;4920;49.594;11.022;2023-12-22T07:38:03;4.10;99.90
9762;DHT22;4920;49.594;11.022;2023-12-22T07:40:32;4.20;99.90
9762;DHT22;4920;49.594;11.022;2023-12-22T07:43:03;4.10;99.90
9762;DHT22;4920;49.594;11.022;2023-12-22T07:45:33;4.10;99.90
9762;DHT22;4920;49.594;11.022;2023-12-22T07:48:02;4.20;99.90
9762;DHT22;4920;49.594;11.022;2023-12-22T07:50:31;4.20;99.90
9762;DHT22;4920;49.594;11.022;2023-12-22T07:53:00;4.20;99.90
9762;DHT22;4920;49.594;11.022;2023-12-22T07:55:34;4.30;99.90
9762;DHT22;4920;49.594;11.022;2023-12-22T07:58:07;4.50;99.90
9762;DHT22;4920;49.594;11.022;2023-12-22T08:00:36;4.50;99.90
9762;DHT22;4920;49.594;11.022;2023-12-22T08:03:05;4.60;99.90
9762;DHT22;4920;49.594;11.022;2023-12-22T08:05:34;4.70;99.90
9762;DHT22;4920;49.594;11.022;2023-12-22T08:08:04;4.80;99.90
9762;DHT22;4920;49.594;11.022;2023-12-22T08:10:33;4.80;99.90
9762;DHT22;4920;49.594;11.022;2023-12-22T08:13:02;4.90;99.90
9762;DHT22;4920;49.594;11.022;2023-12-22T08:15:32;4.90;99.90
9762;DHT22;4920;49.594;11.022;2023-12-22T08:18:04;5.00;99.90
9762;DHT22;4920;49.594;11.022;2023-12-22T08:20:33;5.00;99.90
9762;DHT22;4920;49.594;11.022;2023-12-22T08:23:08;5.10;99.90
9762;DHT22;4920;49.594;11.022;2023-12-22T08:25:40;5.20;99.90
9762;DHT22;4920;49.594;11.022;2023-12-22T08:28:11;5.20;99.90
9762;DHT22;4920;49.594;11.022;2023-12-22T08:30:43;5.20;99.90
9762;DHT22;4920;49.594;11.022;2023-12-22T08:33:11;5.30;99.90
9762;DHT22;4920;49.594;11.022;2023-12-22T08:35:40;5.30;99.90
9762;DHT22;4920;49.594;11.022;2023-12-22T08:38:10;5.30;99.90
9762;DHT22;4920;49.594;11.022;2023-12-22T08:40:41;5.30;99.90
9762;DHT22;4920;49.594;11.022;2023-12-22T08:43:10;5.30;99.90
9762;DHT22;4920;49.594;11.022;2023-12-22T08:45:38;5.10;99.90
9762;DHT22;4920;49.594;11.022;2023-12-22T08:48:09;5.00;99.90
9762;DHT22;4920;49.594;11.022;2023-12-22T08:50:38;5.00;99.90
9762;DHT22;4920;49.594;11.022;2023-12-22T08:53:08;4.90;99.90
9762;DHT22;4920;49.594;11.022;2023-12-22T08:55:36;4.90;99.90
9762;DHT22;4920;49.594;11.022;2023-12-22T08:58:05;4.90;99.90
9762;DHT22;4920;49.594;11.022;2023-12-22T09:00:35;4.90;99.90
9762;DHT22;4920;49.594;11.022;2023-12-22T09:03:04;4.90;99.90
9762;DHT22;4920;49.594;11.022;2023-12-22T09:05:35;4.90;99.90
9762;DHT22;4920;49.594;11.022;2023-12-22T09:08:04;5.00;99.90
9762;DHT22;4920;49.594;11.022;2023-12-22T09:10:33;4.90;99.90
9762;DHT22;4920;49.594;11.022;2023-12-22T09:13:03;4.90;99.90
9762;DHT22;4920;49.594;11.022;2023-12-22T09:15:32;5.00;99.90
9762;DHT22;4920;49.594;11.022;2023-12-22T09:18:01;5.00;99.90
9762;DHT22;4920;49.594;11.022;2023-12-22T09:20:30;4.90;99.90
9762;DHT22;4920;49.594;11.022;2023-12-22T09:23:01;4.90;99.90
9762;DHT22;4920;49.594;11.022;2023-12-22T09:25:33;4.90;99.90
9762;DHT22;4920;49.594;11.022;2023-12-22T09:28:02;4.80;99.90
9762;DHT22;4920;49.594;11.022;2023-12-22T09:30:31;4.80;99.90
9762;DHT22;4920;49.594;11.022;2023-12-22T09:33:00;4.80;99.90
9762;DHT22;4920;49.594;11.022;2023-12-22T09:35:29;4.90;99.90
9762;DHT22;4920;49.594;11.022;2023-12-22T09:37:58;4.90;99.90
9762;DHT22;4920;49.594;11.022;2023-12-22T09:40:28;4.90;99.90
9762;DHT22;4920;49.594;11.022;2023-12-22T09:42:58;5.00;99.90
9762;DHT22;4920;49.594;11.022;2023-12-22T09:45:28;5.00;99.90
9762;DHT22;4920;49.594;11.022;2023-12-22T09:47:59;5.00;99.90
9762;DHT22;4920;49.594;11.022;2023-12-22T09:50:29;5.00;99.90
9762;DHT22;4920;49.594;11.022;2023-12-22T09:52:59;5.00;99.90
9762;DHT22;4920;49.594;11.022;2023-12-22T09:55:32;5.00;99.90
9762;DHT22;4920;49.594;11.022;2023-12-22T09:58:04;5.00;99.90
9762;DHT22;4920;49.594;11.022;2023-12-22T10:00:35;5.00;99.90
9762;DHT22;4920;49.594;11.022;2023-12-22T10:03:06;5.00;99.90
9762;DHT22;4920;49.594;11.022;2023-12-22T10:05:35;5.00;99.90
9762;DHT22;4920;49.594;11.022;2023-12-22T10:08:04;4.80;99.90
9762;DHT22;4920;49.594;11.022;2023-12-22T10:10:38;4.70;99.90
9762;DHT22;4920;49.594;11.022;2023-12-22T10:13:08;4.50;99.90
9762;DHT22;4920;49.594;11.022;2023-12-22T10:15:39;4.50;99.90
9762;DHT22;4920;49.594;11.022;2023-12-22T10:18:09;4.40;99.90
9762;DHT22;4920;49.594;11.022;2023-12-22T10:20:39;4.40;99.90
9762;DHT22;4920;49.594;11.022;2023-12-22T10:23:08;4.40;99.90
9762;DHT22;4920;49.594;11.022;2023-12-22T10:25:40;4.50;99.90
9762;DHT22;4920;49.594;11.022;2023-12-22T10:28:10;4.50;99.90
9762;DHT22;4920;49.594;11.022;2023-12-22T10:30:41;4.50;99.90
9762;DHT22;4920;49.594;11.022;2023-12-22T10:33:11;4.60;99.90
9762;DHT22;4920;49.594;11.022;2023-12-22T10:35:41;4.60;99.90
9762;DHT22;4920;49.594;11.022;2023-12-22T10:38:10;4.60;99.90
9762;DHT22;4920;49.594;11.022;2023-12-22T10:40:41;4.60;99.90
9762;DHT22;4920;49.594;11.022;2023-12-22T10:43:10;4.60;99.90
9762;DHT22;4920;49.594;11.022;2023-12-22T10:45:40;4.60;99.90
9762;DHT22;4920;49.594;11.022;2023-12-22T10:48:10;4.70;99.90
9762;DHT22;4920;49.594;11.022;2023-12-22T10:50:40;4.70;99.90
9762;DHT22;4920;49.594;11.022;2023-12-22T10:53:11;4.70;99.90
9762;DHT22;4920;49.594;11.022;2023-12-22T10:55:46;4.70;99.90
9762;DHT22;4920;49.594;11.022;2023-12-22T10:58:18;4.80;99.90
9762;DHT22;4920;49.594;11.022;2023-12-22T11:00:48;4.80;99.90
9762;DHT22;4920;49.594;11.022;2023-12-22T11:03:23;4.90;99.90
9762;DHT22;4920;49.594;11.022;2023-12-22T11:05:54;4.90;99.90
9762;DHT22;4920;49.594;11.022;2023-12-22T11:08:26;5.00;99.90
9762;DHT22;4920;49.594;11.022;2023-12-22T11:11:04;5.00;99.90
9762;DHT22;4920;49.594;11.022;2023-12-22T11:13:35;5.10;99.90
9762;DHT22;4920;49.594;11.022;2023-12-22T11:16:05;5.20;99.90
9762;DHT22;4920;49.594;11.022;2023-12-22T11:18:35;5.20;99.90
9762;DHT22;4920;49.594;11.022;2023-12-22T11:21:07;5.20;99.90
9762;DHT22;4920;49.594;11.022;2023-12-22T11:23:37;5.30;99.90
9762;DHT22;4920;49.594;11.022;2023-12-22T11:26:09;5.30;99.90
9762;DHT22;4920;49.594;11.022;2023-12-22T11:28:40;5.30;99.90
9762;DHT22;4920;49.594;11.022;2023-12-22T11:31:12;5.40;99.90
9762;DHT22;4920;49.594;11.022;2023-12-22T11:33:44;5.30;99.90
9762;DHT22;4920;49.594;11.022;2023-12-22T11:36:29;5.40;99.90
9762;DHT22;4920;49.594;11.022;2023-12-22T11:39:00;5.40;99.90
9762;DHT22;4920;49.594;11.022;2023-12-22T11:41:33;5.40;99.90
9762;DHT22;4920;49.594;11.022;2023-12-22T11:44:04;5.40;99.90
9762;DHT22;4920;49.594;11.022;2023-12-22T11:46:34;5.50;99.90
9762;DHT22;4920;49.594;11.022;2023-12-22T11:49:04;5.50;99.90
9762;DHT22;4920;49.594;11.022;2023-12-22T11:51:33;5.50;99.90
9762;DHT22;4920;49.594;11.022;2023-12-22T11:54:03;5.50;99.90
9762;DHT22;4920;49.594;11.022;2023-12-22T11:56:34;5.60;99.90
9762;DHT22;4920;49.594;11.022;2023-12-22T11:59:04;5.60;99.90
9762;DHT22;4920;49.594;11.022;2023-12-22T12:01:38;5.70;99.90
9762;DHT22;4920;49.594;11.022;2023-12-22T12:04:08;5.70;99.90
9762;DHT22;4920;49.594;11.022;2023-12-22T12:06:37;5.80;99.90
9762;DHT22;4920;49.594;11.022;2023-12-22T12:09:06;5.80;99.90
9762;DHT22;4920;49.594;11.022;2023-12-22T12:12:13;5.90;99.90
9762;DHT22;4920;49.594;11.022;2023-12-22T12:14:43;5.90;99.90
9762;DHT22;4920;49.594;11.022;2023-12-22T12:17:15;5.90;99.90
9762;DHT22;4920;49.594;11.022;2023-12-22T12:19:47;5.90;99.90
9762;DHT22;4920;49.594;11.022;2023-12-22T12:22:17;5.90;99.90
9762;DHT22;4920;49.594;11.022;2023-12-22T12:24:48;6.00;99.90
9762;DHT22;4920;49.594;11.022;2023-12-22T12:27:19;6.00;99.90
9762;DHT22;4920;49.594;11.022;2023-12-22T12:29:49;6.10;99.90
9762;DHT22;4920;49.594;11.022;2023-12-22T12:32:19;6.10;99.90
9762;DHT22;4920;49.594;11.022;2023-12-22T12:34:52;6.10;99.90
9762;DHT22;4920;49.594;11.022;2023-12-22T12:37:24;6.10;99.90
9762;DHT22;4920;49.594;11.022;2023-12-22T12:39:57;6.10;99.90
9762;DHT22;4920;49.594;11.022;2023-12-22T12:42:31;6.10;99.90
9762;DHT22;4920;49.594;11.022;2023-12-22T12:45:00;6.20;99.90
9762;DHT22;4920;49.594;11.022;2023-12-22T12:47:29;6.20;99.90
9762;DHT22;4920;49.594;11.022;2023-12-22T12:49:59;6.30;99.90
9762;DHT22;4920;49.594;11.022;2023-12-22T12:52:28;6.30;99.90
9762;DHT22;4920;49.594;11.022;2023-12-22T12:54:58;6.30;99.90
9762;DHT22;4920;49.594;11.022;2023-12-22T12:57:30;6.40;99.90
9762;DHT22;4920;49.594;11.022;2023-12-22T12:59:58;6.40;99.90
9762;DHT22;4920;49.594;11.022;2023-12-22T13:02:28;6.50;99.90
9762;DHT22;4920;49.594;11.022;2023-12-22T13:04:57;6.50;99.90
9762;DHT22;4920;49.594;11.022;2023-12-22T13:07:26;6.50;99.90
9762;DHT22;4920;49.594;11.022;2023-12-22T13:09:56;6.50;99.90
9762;DHT22;4920;49.594;11.022;2023-12-22T13:12:25;6.50;99.90
9762;DHT22;4920;49.594;11.022;2023-12-22T13:15:02;6.60;99.90
9762;DHT22;4920;49.594;11.022;2023-12-22T13:17:31;6.60;99.90
9762;DHT22;4920;49.594;11.022;2023-12-22T13:20:03;6.70;99.90
9762;DHT22;4920;49.594;11.022;2023-12-22T13:22:33;6.80;99.90
9762;DHT22;4920;49.594;11.022;2023-12-22T13:25:02;6.80;99.90
9762;DHT22;4920;49.594;11.022;2023-12-22T13:27:31;6.80;99.90
9762;DHT22;4920;49.594;11.022;2023-12-22T13:30:02;6.90;99.90
9762;DHT22;4920;49.594;11.022;2023-12-22T13:32:31;7.00;99.90
9762;DHT22;4920;49.594;11.022;2023-12-22T13:35:02;7.00;99.90
9762;DHT22;4920;49.594;11.022;2023-12-22T13:37:48;7.00;99.90
9762;DHT22;4920;49.594;11.022;2023-12-22T13:40:17;6.90;99.90
9762;DHT22;4920;49.594;11.022;2023-12-22T13:42:54;6.90;99.90
9762;DHT22;4920;49.594;11.022;2023-12-22T13:45:23;7.00;99.90
9762;DHT22;4920;49.594;11.022;2023-12-22T13:47:52;7.10;99.90
9762;DHT22;4920;49.594;11.022;2023-12-22T13:50:21;7.10;99.90
9762;DHT22;4920;49.594;11.022;2023-12-22T13:52:52;7.10;99.90
9762;DHT22;4920;49.594;11.022;2023-12-22T13:55:22;7.20;99.90
9762;DHT22;4920;49.594;11.022;2023-12-22T13:57:59;7.30;99.90
9762;DHT22;4920;49.594;11.022;2023-12-22T14:00:29;7.40;99.90
9762;DHT22;4920;49.594;11.022;2023-12-22T14:03:01;7.50;99.90
9762;DHT22;4920;49.594;11.022;2023-12-22T14:05:30;7.60;99.90
9762;DHT22;4920;49.594;11.022;2023-12-22T14:08:04;7.60;99.90
9762;DHT22;4920;49.594;11.022;2023-12-22T14:10:33;7.70;99.90
9762;DHT22;4920;49.594;11.022;2023-12-22T14:13:02;7.60;99.90
9762;DHT22;4920;49.594;11.022;2023-12-22T14:15:31;7.70;99.90
9762;DHT22;4920;49.594;11.022;2023-12-22T14:18:11;7.70;99.90
9762;DHT22;4920;49.594;11.022;2023-12-22T14:20:40;7.60;99.90
9762;DHT22;4920;49.594;11.022;2023-12-22T14:23:11;7.50;99.90
9762;DHT22;4920;49.594;11.022;2023-12-22T14:25:44;7.50;99.90
9762;DHT22;4920;49.594;11.022;2023-12-22T14:28:13;7.40;99.90
9762;DHT22;4920;49.594;11.022;2023-12-22T14:30:42;7.40;99.90
9762;DHT22;4920;49.594;11.022;2023-12-22T14:33:11;7.40;99.90
9762;DHT22;4920;49.594;11.022;2023-12-22T14:35:40;7.40;99.90
9762;DHT22;4920;49.594;11.022;2023-12-22T14:38:11;7.40;99.90
9762;DHT22;4920;49.594;11.022;2023-12-22T14:40:40;7.40;99.90
9762;DHT22;4920;49.594;11.022;2023-12-22T14:43:09;7.40;99.90
9762;DHT22;4920;49.594;11.022;2023-12-22T14:45:38;7.40;99.90
9762;DHT22;4920;49.594;11.022;2023-12-22T14:48:07;7.60;99.90
9762;DHT22;4920;49.594;11.022;2023-12-22T14:50:36;7.60;99.90
9762;DHT22;4920;49.594;11.022;2023-12-22T14:53:05;7.60;99.90
9762;DHT22;4920;49.594;11.022;2023-12-22T14:55:39;7.70;99.90
9762;DHT22;4920;49.594;11.022;2023-12-22T14:58:07;7.80;99.90
9762;DHT22;4920;49.594;11.022;2023-12-22T15:00:37;7.90;99.90
9762;DHT22;4920;49.594;11.022;2023-12-22T15:03:07;7.90;99.90
9762;DHT22;4920;49.594;11.022;2023-12-22T15:05:36;7.90;99.90
9762;DHT22;4920;49.594;11.022;2023-12-22T15:08:05;8.00;99.90
9762;DHT22;4920;49.594;11.022;2023-12-22T15:10:35;8.00;99.90
9762;DHT22;4920;49.594;11.022;2023-12-22T15:13:06;8.00;99.90
9762;DHT22;4920;49.594;11.022;2023-12-22T15:15:35;8.10;99.90
9762;DHT22;4920;49.594;11.022;2023-12-22T15:18:05;8.10;99.90
9762;DHT22;4920;49.594;11.022;2023-12-22T15:20:39;8.10;99.90
9762;DHT22;4920;49.594;11.022;2023-12-22T15:23:08;8.10;99.90
9762;DHT22;4920;49.594;11.022;2023-12-22T15:25:37;8.10;99.90
9762;DHT22;4920;49.594;11.022;2023-12-22T15:28:08;8.10;99.90
9762;DHT22;4920;49.594;11.022;2023-12-22T15:30:37;8.10;99.90
9762;DHT22;4920;49.594;11.022;2023-12-22T15:33:06;8.10;99.90
9762;DHT22;4920;49.594;11.022;2023-12-22T15:35:35;8.10;99.90
9762;DHT22;4920;49.594;11.022;2023-12-22T15:38:04;8.10;99.90
9762;DHT22;4920;49.594;11.022;2023-12-22T15:40:33;8.10;99.90
9762;DHT22;4920;49.594;11.022;2023-12-22T15:43:02;8.10;99.90
9762;DHT22;4920;49.594;11.022;2023-12-22T15:45:33;8.10;99.90
9762;DHT22;4920;49.594;11.022;2023-12-22T15:48:02;8.10;99.90
9762;DHT22;4920;49.594;11.022;2023-12-22T15:50:31;8.10;99.90
9762;DHT22;4920;49.594;11.022;2023-12-22T15:53:00;8.10;99.90
9762;DHT22;4920;49.594;11.022;2023-12-22T15:55:29;8.10;99.90
9762;DHT22;4920;49.594;11.022;2023-12-22T15:58:01;8.20;99.90
9762;DHT22;4920;49.594;11.022;2023-12-22T16:00:30;8.20;99.90
9762;DHT22;4920;49.594;11.022;2023-12-22T16:03:01;8.20;99.90
9762;DHT22;4920;49.594;11.022;2023-12-22T16:05:30;8.20;99.90
9762;DHT22;4920;49.594;11.022;2023-12-22T16:07:59;8.30;99.90
9762;DHT22;4920;49.594;11.022;2023-12-22T16:10:29;8.30;99.90
9762;DHT22;4920;49.594;11.022;2023-12-22T16:12:58;8.30;99.90
9762;DHT22;4920;49.594;11.022;2023-12-22T16:15:27;8.30;99.90
9762;DHT22;4920;49.594;11.022;2023-12-22T16:17:56;8.30;99.90
9762;DHT22;4920;49.594;11.022;2023-12-22T16:20:26;8.30;99.90